Latest Weather Observations for Hamilton

IDV60801

Issued at 9:22 am EST Thursday 1 October 2020 (issued every 10 minutes, with the page automatically refreshed every 10 minutes)

About weather observations | Map of weather stations | Latest weather observations for VIC | Other Formats
Station Details ID: 090173 Name: HAMILTON AIRPORT Lat: -37.65 Lon: 142.06 Height: 241.1 m
Data from the previous 72 hours. | See also: Recent months at Hamilton
Date/Time
EST
Temp
°C
App
Temp
°C
Dew
Point
°C
Rel
Hum
%
Delta-T
°C
Wind Press
QNH
hPa
Press
MSL
hPa
Rain since
9am
mm
Dir  Spd
km/h
Gust
km/h
Spd
kts
Gust
kts
01/09:00am 10.4 6.1 7.1 80 1.6 NW 19 26 10 14 1016.6 1016.8 3.2
01/08:30am 8.9 5.1 7.7 92 0.6 NW 17 20 9 11 1016.8 1017.0 3.2
01/08:00am 7.8 4.0 7.5 98 0.1 NNW 17 20 9 11 1016.4 1016.5 3.2
01/07:30am 6.4 2.7 6.1 98 0.1 NNW 15 19 8 10 1016.1 1016.2 3.2
01/07:00am 5.4 1.4 5.1 98 0.1 NNW 15 17 8 9 1015.8 1015.9 3.2
01/06:30am 4.2 0.8 3.8 97 0.2 NNW 11 13 6 7 1015.4 1015.5 3.2
01/06:00am 4.0 0.5 3.6 97 0.2 NNW 11 13 6 7 1015.0 1015.2 3.2
01/05:30am 4.1 0.3 3.7 97 0.2 N 13 15 7 8 1014.5 1014.7 3.2
01/05:00am 4.3 0.5 3.7 96 0.3 NNW 13 15 7 8 1014.3 1014.5 3.2
01/04:30am 4.4 0.9 3.7 95 0.3 NNW 11 13 6 7 1014.0 1014.2 3.2
01/04:00am 5.5 2.2 4.8 95 0.3 N 11 13 6 7 1013.9 1014.1 3.2
01/03:55am 5.6 2.4 4.9 95 0.3 NNW 11 13 6 7 1013.9 1014.1 3.2
01/03:40am 5.7 2.5 5.0 95 0.3 N 11 13 6 7 1013.8 1014.0 3.2
01/03:30am 5.8 2.6 5.1 95 0.3 N 11 13 6 7 1013.8 1014.0 3.2
01/03:00am 5.7 2.8 4.7 93 0.4 NW 9 13 5 7 1013.6 1013.8 3.2
01/02:30am 7.0 4.0 5.9 93 0.5 W 11 17 6 9 1013.5 1013.7 3.0
01/02:00am 5.8 2.1 4.6 92 0.5 WNW 13 17 7 9 1013.3 1013.5 2.8
01/01:30am 6.5 3.0 5.3 92 0.5 WNW 13 17 7 9 1013.1 1013.3 2.8
01/01:00am 7.0 3.2 5.8 92 0.5 WNW 15 19 8 10 1013.1 1013.3 2.8
01/12:30am 6.7 3.2 5.5 92 0.5 WNW 13 15 7 8 1012.9 1013.0 2.8
01/12:00am 7.3 3.9 5.9 91 0.6 WNW 13 19 7 10 1012.7 1012.8 2.8
 
Date/Time
EST
Temp
°C
App
Temp
°C
Dew
Point
°C
Rel
Hum
%
Delta-T
°C
Wind Press
QNH
hPa
Press
MSL
hPa
Rain since
9am
mm
Dir  Spd
km/h
Gust
km/h
Spd
kts
Gust
kts
30/11:30pm 7.8 3.7 6.4 91 0.6 WNW 17 22 9 12 1012.6 1012.7 2.8
30/11:00pm 8.2 4.2 6.8 91 0.7 WNW 17 24 9 13 1012.4 1012.5 2.8
30/10:30pm 8.6 4.7 7.2 91 0.7 WNW 17 24 9 13 1012.2 1012.3 2.8
30/10:00pm 8.9 5.1 7.5 91 0.7 WNW 17 24 9 13 1012.0 1012.1 2.8
30/09:30pm 9.0 5.3 7.9 93 0.5 WNW 17 24 9 13 1012.0 1012.1 2.8
30/09:00pm 7.7 4.7 6.0 89 0.8 WNW 11 13 6 7 1011.6 1011.7 2.8
30/08:30pm 9.1 5.6 7.2 88 0.9 W 15 19 8 10 1011.2 1011.3 2.8
30/08:00pm 9.3 5.5 7.4 88 0.9 W 17 26 9 14 1010.5 1010.7 2.8
30/07:30pm 9.3 5.1 7.6 89 0.8 W 19 24 10 13 1010.1 1010.3 2.8
30/07:00pm 9.0 4.8 7.6 91 0.7 W 19 26 10 14 1009.6 1009.8 2.8
30/06:59pm 8.9 4.7 7.5 91 0.7 W 19 28 10 15 1009.5 1009.7 2.8
30/06:46pm 8.9 2.2 7.4 90 0.7 WSW 32 50 17 27 1009.5 1009.7 2.8
30/06:41pm 9.1 2.2 7.4 89 0.8 WSW 33 50 18 27 1009.5 1009.7 2.4
30/06:37pm 9.3 2.7 7.6 89 0.8 WSW 32 50 17 27 1009.3 1009.4 2.0
30/06:30pm 9.7 4.4 8.3 91 0.7 WNW 26 48 14 26 1009.2 1009.3 2.0
30/06:29pm 10.3 5.6 9.1 92 0.6 WNW 24 48 13 26 1009.2 1009.3 2.0
30/06:00pm 11.0 7.3 10.2 95 0.4 NW 20 26 11 14 1008.2 1008.3 2.0
30/05:30pm 11.0 5.7 9.9 93 0.6 WNW 28 37 15 20 1008.1 1008.2 2.0
30/05:00pm 11.4 6.4 9.7 89 0.9 NW 26 35 14 19 1007.8 1007.9 1.2
30/04:56pm 11.5 6.9 9.6 88 1.0 WNW 24 32 13 17 1007.7 1007.8 1.0
30/04:38pm 11.9 6.4 9.3 84 1.3 NW 28 43 15 23 1007.5 1007.6 0.6
30/04:30pm 12.9 7.6 8.6 75 2.2 NW 26 37 14 20 1007.3 1007.4 0.2
30/04:00pm 13.3 7.6 8.2 71 2.6 NW 28 37 15 20 1007.2 1007.3 0.2
30/03:30pm 13.7 8.0 8.3 70 2.7 NW 28 43 15 23 1007.4 1007.5 0.2
30/03:00pm 13.5 8.5 9.6 77 2.0 WNW 26 37 14 20 1007.5 1007.6 0.2
30/02:30pm 13.3 6.6 9.5 78 2.0 WNW 35 52 19 28 1007.6 1007.7 0.2
30/02:19pm 13.4 7.9 10.6 83 1.5 WNW 30 39 16 21 1007.6 1007.7 0.2
30/02:00pm 12.5 6.5 10.9 90 0.8 WNW 33 46 18 25 1007.8 1007.9 0.2
30/01:59pm 12.5 6.7 10.9 90 0.8 WNW 32 43 17 23 1007.8 1007.9 0.2
30/01:45pm 12.8 8.0 11.7 93 0.6 WNW 28 46 15 25 1007.8 1007.9 0.2
30/01:34pm 12.9 7.7 11.6 92 0.7 WNW 30 50 16 27 1007.8 1007.9 0.2
30/01:30pm 12.9 7.7 11.6 92 0.7 WNW 30 43 16 23 1007.8 1007.9 0.2
30/01:00pm 15.0 9.8 12.7 86 1.3 NW 32 39 17 21 1007.5 1007.6 0.2
30/12:57pm 14.9 9.7 12.8 87 1.2 NW 32 39 17 21 1007.5 1007.6 0.2
30/12:50pm 14.4 9.6 13.0 91 0.8 NW 30 41 16 22 1007.6 1007.7 0.2
30/12:30pm 14.8 9.0 11.4 80 1.8 NNW 33 41 18 22 1007.6 1007.7 0.0
30/12:00pm 14.3 9.6 12.0 86 1.3 NNW 28 35 15 19 1008.0 1008.1 0.0
30/11:30am 13.8 8.4 12.2 90 0.9 NNW 32 43 17 23 1008.5 1008.6 0.0
30/11:00am 13.9 9.2 11.9 88 1.1 NNW 28 35 15 19 1008.9 1009.0 0.0
30/10:30am 13.8 9.3 12.5 92 0.7 NNW 28 35 15 19 1009.2 1009.3 0.0
30/10:00am 13.2 8.2 12.3 94 0.5 N 30 37 16 20 1009.6 1009.8 0.0
30/09:30am 12.5 7.6 11.2 92 0.7 N 28 35 15 19 1010.0 1010.2 0.0
30/09:00am 12.7 7.7 10.9 89 1.0 NNW 28 35 15 19 1010.1 1010.3 0.0
30/08:30am 12.1 6.8 11.3 95 0.4 NNW 30 39 16 21 1010.1 1010.3 0.0
30/08:00am 11.3 7.0 10.8 97 0.3 N 24 41 13 22 1010.2 1010.4 0.0
30/07:30am 11.2 7.8 10.6 96 0.3 N 19 24 10 13 1010.2 1010.4 0.0
30/07:00am 10.9 7.7 10.1 95 0.4 N 17 22 9 12 1010.2 1010.4 0.0
30/06:45am 10.9 7.7 10.1 95 0.4 N 17 22 9 12 1010.1 1010.3 0.0
30/06:30am 10.8 8.4 10.0 95 0.4 N 13 19 7 10 1010.1 1010.3 0.0
30/06:00am 10.6 8.0 9.5 93 0.6 N 13 17 7 9 1010.3 1010.5 0.0
30/05:30am 11.2 7.8 9.3 88 1.0 N 17 24 9 13 1010.3 1010.5 0.0
30/05:00am 10.9 8.1 8.7 86 1.1 N 13 15 7 8 1010.4 1010.6 0.0
30/04:30am 11.3 8.5 8.7 84 1.3 N 13 17 7 9 1010.7 1010.9 0.0
30/04:00am 11.6 8.8 8.6 82 1.5 N 13 15 7 8 1011.0 1011.1 0.0
30/03:30am 11.6 8.9 8.8 83 1.4 N 13 20 7 11 1011.0 1011.1 0.0
30/03:00am 10.9 8.4 8.1 83 1.4 NNE 11 13 6 7 1011.3 1011.4 0.0
30/02:30am 10.9 7.9 7.6 80 1.6 NNE 13 17 7 9 1011.8 1011.9 0.0
30/02:00am 11.3 7.9 7.6 78 1.8 N 15 19 8 10 1012.4 1012.5 0.0
30/01:30am 11.2 7.8 7.5 78 1.8 NNE 15 17 8 9 1012.8 1012.9 0.0
30/01:00am 11.4 8.5 6.7 73 2.3 N 11 13 6 7 1013.0 1013.2 0.0
30/12:30am 12.1 8.8 6.4 68 2.7 NNW 13 13 7 7 1013.1 1013.3 0.0
30/12:00am 13.2 9.4 5.9 61 3.5 NNW 15 19 8 10 1013.2 1013.4 0.0
 
Date/Time
EST
Temp
°C
App
Temp
°C
Dew
Point
°C
Rel
Hum
%
Delta-T
°C
Wind Press
QNH
hPa
Press
MSL
hPa
Rain since
9am
mm
Dir  Spd
km/h
Gust
km/h
Spd
kts
Gust
kts
29/11:30pm 13.3 8.7 5.7 60 3.6 NNW 19 24 10 13 1013.4 1013.6 0.0
29/11:00pm 14.2 9.3 5.3 55 4.2 NW 20 28 11 15 1013.5 1013.7 0.0
29/10:30pm 14.5 9.8 5.0 53 4.5 N 19 28 10 15 1013.4 1013.6 0.0
29/10:00pm 14.8 10.4 4.8 51 4.7 N 17 24 9 13 1013.6 1013.8 0.0
29/09:30pm 14.6 10.6 5.1 53 4.5 N 15 22 8 12 1014.1 1014.3 0.0
29/09:00pm 14.0 10.2 5.6 57 4.0 N 15 19 8 10 1014.4 1014.6 0.0
29/08:30pm 14.0 10.6 5.9 58 3.9 N 13 17 7 9 1014.5 1014.7 0.0
29/08:00pm 13.7 11.2 6.6 62 3.5 N 9 11 5 6 1014.5 1014.7 0.0
29/07:30pm 13.4 10.6 7.0 65 3.1 NNE 11 13 6 7 1014.5 1014.7 0.0
29/07:00pm 13.7 11.3 7.2 65 3.2 NNE 9 11 5 6 1014.5 1014.7 0.0
29/06:30pm 14.0 10.9 7.1 63 3.4 N 13 17 7 9 1014.6 1014.8 0.0
29/06:00pm 14.9 11.0 7.0 59 3.9 N 17 20 9 11 1014.5 1014.7 0.0
29/05:30pm 15.4 11.0 7.2 58 4.1 N 20 26 11 14 1014.6 1014.8 0.0
29/05:00pm 15.7 10.9 7.5 58 4.1 N 22 30 12 16 1014.5 1014.7 0.0
29/04:30pm 16.4 10.8 7.1 54 4.7 N 26 35 14 19 1014.9 1015.1 0.0
29/04:00pm 16.2 10.0 6.3 52 4.9 N 28 35 15 19 1015.0 1015.2 0.0
29/03:30pm 16.2 10.4 6.3 52 4.9 N 26 33 14 18 1015.7 1015.8 0.0
29/03:00pm 16.0 10.2 6.4 53 4.7 N 26 35 14 19 1016.1 1016.2 0.0
29/02:30pm 15.7 9.1 5.9 52 4.8 N 30 39 16 21 1016.4 1016.5 0.0
29/02:00pm 16.3 9.3 6.7 53 4.8 N 33 43 18 23 1017.0 1017.2 0.0
29/01:30pm 16.4 9.0 6.8 53 4.8 N 35 48 19 26 1017.4 1017.6 0.0
29/01:00pm 16.3 9.4 6.4 52 4.9 N 32 48 17 26 1018.1 1018.3 0.0
29/12:34pm 16.2 9.7 6.3 52 4.9 N 30 48 16 26 1018.6 1018.8 0.0
29/12:30pm 16.0 9.5 6.4 53 4.7 N 30 41 16 22 1018.6 1018.8 0.0
29/12:00pm 16.1 9.8 5.7 50 5.1 N 28 37 15 20 1019.0 1019.2 0.0
29/11:30am 15.6 8.3 5.5 51 4.9 N 33 48 18 26 1019.1 1019.3 0.0
29/11:00am 15.2 8.1 5.4 52 4.7 N 32 44 17 24 1019.6 1019.7 0.0
29/10:30am 14.8 7.6 5.1 52 4.6 N 32 39 17 21 1020.3 1020.5 0.0
29/10:00am 14.2 7.8 5.0 54 4.3 N 28 39 15 21 1020.8 1021.0 0.0
29/09:30am 13.9 8.4 6.0 59 3.8 N 24 32 13 17 1021.2 1021.4 0.0
29/09:00am 12.0 8.3 6.3 68 2.7 N 15 19 8 10 1021.3 1021.5 0.2
29/08:30am 10.4 7.1 6.2 75 2.0 NE 13 15 7 8 1021.1 1021.3 0.2
29/08:00am 9.2 5.7 5.4 77 1.7 NE 13 17 7 9 1021.4 1021.6 0.2
29/07:30am 8.0 4.5 5.5 84 1.1 NE 13 15 7 8 1021.5 1021.7 0.2
29/07:00am 6.5 2.9 5.1 91 0.6 NE 13 15 7 8 1021.6 1021.8 0.2
29/06:30am 4.5 0.6 3.5 93 0.4 NE 13 15 7 8 1021.6 1021.8 0.2
29/06:00am 4.1 -0.2 3.4 95 0.3 NE 15 17 8 9 1021.7 1021.9 0.2
29/05:30am 3.6 0.0 2.7 94 0.4 ENE 11 11 6 6 1021.9 1022.1 0.2
29/05:00am 4.5 0.3 3.9 96 0.3 ENE 15 17 8 9 1021.4 1021.6 0.2
29/04:30am 4.5 0.3 3.9 96 0.3 ENE 15 17 8 9 1021.7 1021.9 0.2
29/04:00am 4.3 0.1 3.7 96 0.3 ENE 15 17 8 9 1021.6 1021.8 0.2
29/03:30am 4.9 1.2 4.3 96 0.3 ENE 13 17 7 9 1021.5 1021.7 0.2
29/03:00am 5.1 1.1 4.8 98 0.1 E 15 17 8 9 1021.5 1021.7 0.2
29/02:30am 3.1 -1.0 2.5 96 0.2 ESE 13 15 7 8 1022.0 1022.2 0.2
29/02:00am 2.6 -1.5 2.0 96 0.2 ESE 13 15 7 8 1022.5 1022.7 0.2
29/01:30am 3.1 -1.4 2.4 95 0.3 ESE 15 17 8 9 1022.8 1023.0 0.2
29/01:00am 3.6 -1.1 2.9 95 0.3 ESE 17 19 9 10 1023.2 1023.4 0.2
29/12:30am 4.2 -0.9 3.3 94 0.4 ESE 19 19 10 10 1023.5 1023.8 0.2
29/12:00am 4.2 -0.1 3.2 93 0.4 ESE 15 17 8 9 1024.0 1024.2 0.2
 
Date/Time
EST
Temp
°C
App
Temp
°C
Dew
Point
°C
Rel
Hum
%
Delta-T
°C
Wind Press
QNH
hPa
Press
MSL
hPa
Rain since
9am
mm
Dir  Spd
km/h
Gust
km/h
Spd
kts
Gust
kts
28/11:30pm 4.3 0.0 3.1 92 0.5 ESE 15 17 8 9 1024.4 1024.6 0.2
28/11:00pm 4.8 0.5 3.3 90 0.6 ESE 15 17 8 9 1024.5 1024.7 0.2
28/10:30pm 5.8 1.2 3.8 87 0.9 E 17 19 9 10 1024.8 1025.0 0.2
28/10:00pm 6.9 2.8 4.6 85 1.0 E 15 19 8 10 1025.0 1025.2 0.2
28/09:30pm 7.7 3.7 5.0 83 1.2 E 15 19 8 10 1025.1 1025.3 0.2
28/09:00pm 7.6 3.2 4.9 83 1.2 E 17 19 9 10 1024.8 1025.0 0.2
28/08:30pm 7.7 3.8 5.2 84 1.1 E 15 17 8 9 1025.1 1025.3 0.2
28/08:00pm 6.9 2.9 4.7 86 1.0 ESE 15 17 8 9 1024.6 1024.8 0.2
28/07:30pm 7.5 3.2 5.1 85 1.1 ESE 17 19 9 10 1024.3 1024.5 0.2
28/07:00pm 8.5 4.6 5.4 81 1.4 ESE 15 17 8 9 1024.5 1024.7 0.2
28/06:30pm 9.7 5.5 5.7 76 1.9 ESE 17 19 9 10 1024.4 1024.6 0.2
28/06:00pm 11.7 7.6 6.2 69 2.6 ESE 17 20 9 11 1024.6 1024.8 0.2
28/05:30pm 13.0 9.2 5.7 61 3.5 ESE 15 19 8 10 1024.7 1024.9 0.2
28/05:00pm 13.8 10.4 5.7 58 3.9 SE 13 19 7 10 1024.7 1024.9 0.2
28/04:30pm 14.2 10.5 6.3 59 3.8 ESE 15 20 8 11 1024.5 1024.7 0.2
28/04:00pm 14.4 11.0 5.7 56 4.2 E 13 17 7 9 1024.7 1024.9 0.2
28/03:30pm 14.3 11.9 5.4 55 4.3 ESE 7 13 4 7 1024.8 1025.0 0.2
28/03:00pm 14.6 12.5 5.9 56 4.2 SE 6 13 3 7 1025.3 1025.5 0.2
28/02:30pm 14.1 11.8 4.9 54 4.3 ESE 6 11 3 6 1025.7 1025.9 0.2
28/02:00pm 14.4 12.2 6.0 57 4.0 E 7 15 4 8 1026.1 1026.3 0.2
28/01:30pm 13.8 10.9 4.9 55 4.2 NNW 9 13 5 7 1026.4 1026.6 0.2
28/01:00pm 13.5 10.7 3.3 50 4.6 ENE 7 11 4 6 1026.8 1027.0 0.2
28/12:30pm 12.7 9.7 4.2 56 3.9 E 9 15 5 8 1027.1 1027.4 0.0
28/12:00pm 12.2 9.2 3.9 57 3.7 E 9 13 5 7 1027.5 1027.8 0.0
28/11:30am 12.0 8.8 5.0 62 3.3 SE 11 19 6 10 1027.8 1028.1 0.0
28/11:00am 11.4 8.4 4.2 61 3.2 E 9 17 5 9 1028.4 1028.6 0.0
28/10:30am 11.2 7.9 4.7 64 3.0 E 11 17 6 9 1028.8 1029.0 0.0
28/10:00am 10.5 7.5 4.2 65 2.8 ESE 9 17 5 9 1029.1 1029.3 0.0
28/09:30am 9.6 6.2 4.2 69 2.4 E 11 17 6 9 1029.1 1029.3 0.0

Other formats

Comma delimited format used in spreadsheet applications
http://www.bom.gov.au/fwo/IDV60801/IDV60801.94829.axf

JavaScript Object Notation format (JSON) in row-major order
http://www.bom.gov.au/fwo/IDV60801/IDV60801.94829.json

Data quality

Most of these data are generated automatically and are frequently updated. Quality checks on data are not normally performed. It is possible for incorrect values to appear. Refer to information at About Latest Weather Observations and please check the disclaimer before using these data.